createdAt,value
2022-11-20T00:01:16.268Z,84.35
2022-11-20T00:04:17.953Z,84.98
2022-11-20T00:07:19.646Z,84.24
2022-11-20T00:10:21.386Z,84.01
2022-11-20T00:13:23.058Z,84.85
2022-11-20T00:16:26.670Z,84.34
2022-11-20T00:19:28.461Z,85.21
2022-11-20T00:22:30.051Z,84.92
2022-11-20T00:25:31.770Z,84.69
2022-11-20T00:28:33.674Z,85.51
2022-11-20T00:31:36.051Z,84.74
2022-11-20T00:34:37.626Z,84.62
2022-11-20T00:37:39.240Z,85.08
2022-11-20T00:40:40.827Z,85.03
2022-11-20T00:43:43.296Z,84.75
2022-11-20T00:46:44.902Z,85.75
2022-11-20T00:49:46.560Z,85.67
2022-11-20T00:52:48.220Z,85.93
2022-11-20T00:56:06.880Z,86.06
2022-11-20T00:59:10.265Z,85.08
2022-11-20T01:02:11.860Z,86.00
2022-11-20T01:05:13.726Z,85.78
2022-11-20T01:08:15.553Z,85.50
2022-11-20T01:11:20.372Z,85.60
2022-11-20T01:14:21.994Z,86.25
2022-11-20T01:17:24.046Z,85.53
2022-11-20T01:20:25.641Z,85.53
2022-11-20T01:23:27.211Z,85.36
2022-11-20T01:26:32.417Z,85.43
2022-11-20T01:29:34.175Z,86.04
2022-11-20T01:32:35.764Z,85.47
2022-11-20T01:35:37.382Z,85.34
2022-11-20T01:38:39.279Z,85.35
2022-11-20T01:41:59.921Z,85.06
2022-11-20T01:45:02.096Z,85.76
2022-11-20T01:48:04.312Z,85.54
2022-11-20T01:51:12.162Z,86.37
2022-11-20T01:54:20.240Z,86.09
2022-11-20T01:57:25.179Z,85.83
2022-11-20T02:00:26.879Z,85.37
2022-11-20T02:03:29.086Z,86.28
2022-11-20T02:06:36.164Z,85.49
2022-11-20T02:09:37.776Z,85.47
2022-11-20T02:12:58.119Z,85.21
2022-11-20T02:16:00.588Z,85.32
2022-11-20T02:19:04.886Z,84.80
2022-11-20T02:22:12.969Z,85.70
2022-11-20T02:25:15.511Z,85.31
2022-11-20T02:28:19.267Z,85.06
2022-11-20T02:31:21.251Z,85.04
2022-11-20T02:34:23.026Z,84.31
2022-11-20T02:37:31.610Z,84.78
2022-11-20T02:40:33.381Z,85.04
2022-11-20T02:43:35.190Z,84.64
2022-11-20T02:46:36.843Z,84.46
2022-11-20T02:49:38.476Z,84.03
2022-11-20T02:52:40.146Z,85.21
2022-11-20T02:55:41.878Z,84.44
2022-11-20T02:58:43.603Z,85.36
2022-11-20T03:01:45.398Z,84.75
2022-11-20T03:04:47.291Z,84.67
2022-11-20T03:07:48.935Z,85.27
2022-11-20T03:10:50.610Z,84.47
2022-11-20T03:13:52.248Z,84.96
2022-11-20T03:16:53.848Z,84.61
2022-11-20T03:19:55.410Z,85.15
2022-11-20T03:22:57.029Z,85.33
2022-11-20T03:26:20.058Z,84.95
2022-11-20T03:29:21.792Z,84.80
2022-11-20T03:32:23.607Z,84.80
2022-11-20T03:35:25.529Z,84.85
2022-11-20T03:38:30.444Z,85.30
2022-11-20T03:41:36.812Z,84.41
2022-11-20T03:44:38.412Z,84.37
2022-11-20T03:47:40.034Z,84.13
2022-11-20T03:50:41.624Z,84.00
2022-11-20T03:53:45.469Z,83.76
2022-11-20T03:56:47.097Z,83.89
2022-11-20T03:59:48.835Z,84.23
2022-11-20T04:02:50.413Z,83.64
2022-11-20T04:05:51.977Z,84.38
2022-11-20T04:08:59.344Z,84.19
2022-11-20T04:12:01.308Z,84.17
2022-11-20T04:15:03.136Z,84.74
2022-11-20T04:18:04.907Z,84.09
2022-11-20T04:21:07.599Z,83.39
2022-11-20T04:24:09.435Z,83.83
2022-11-20T04:27:11.073Z,84.19
2022-11-20T04:30:13.240Z,84.13
2022-11-20T04:33:14.936Z,84.40
2022-11-20T04:36:19.030Z,84.13
2022-11-20T04:39:20.996Z,85.33
2022-11-20T04:42:31.425Z,85.41
2022-11-20T04:45:33.079Z,85.58
2022-11-20T04:48:35.783Z,84.96
2022-11-20T04:51:37.419Z,85.15
2022-11-20T04:54:39.139Z,85.15
2022-11-20T04:57:40.795Z,84.89
2022-11-20T05:00:42.557Z,84.88
2022-11-20T05:03:45.226Z,85.03
2022-11-20T05:06:46.935Z,85.01
2022-11-20T05:09:48.554Z,84.70
2022-11-20T05:12:50.195Z,84.91
2022-11-20T05:15:51.961Z,84.85
2022-11-20T05:18:55.322Z,84.56
2022-11-20T05:21:57.404Z,84.89
2022-11-20T05:24:59.005Z,85.54
2022-11-20T05:28:00.655Z,85.20
2022-11-20T05:31:10.607Z,85.12
2022-11-20T05:34:12.256Z,85.20
2022-11-20T05:37:13.921Z,85.11
2022-11-20T05:40:15.580Z,84.49
2022-11-20T05:43:17.175Z,84.16
2022-11-20T05:46:26.399Z,84.30
2022-11-20T05:49:30.476Z,84.46
2022-11-20T05:52:32.075Z,84.01
2022-11-20T05:55:34.369Z,84.63
2022-11-20T05:58:37.472Z,84.62
2022-11-20T06:01:39.076Z,84.44
2022-11-20T06:04:40.660Z,84.02
2022-11-20T06:07:42.504Z,84.38
2022-11-20T06:10:44.182Z,84.16
2022-11-20T06:13:47.027Z,83.48
2022-11-20T06:16:48.670Z,83.79
2022-11-20T06:19:50.303Z,83.61
2022-11-20T06:22:51.873Z,83.44
2022-11-20T06:25:53.479Z,82.88
2022-11-20T06:28:57.126Z,83.22
2022-11-20T06:31:58.783Z,82.75
2022-11-20T06:35:00.484Z,83.11
2022-11-20T06:38:02.042Z,83.16
2022-11-20T06:41:04.975Z,83.19
2022-11-20T06:44:06.700Z,82.94
2022-11-20T06:47:08.444Z,83.24
2022-11-20T06:50:10.343Z,82.90
2022-11-20T06:53:11.935Z,83.12
2022-11-20T06:56:13.740Z,82.73
2022-11-20T06:59:15.476Z,82.83
2022-11-20T07:02:17.083Z,82.32
2022-11-20T07:05:18.944Z,81.73
2022-11-20T07:08:20.644Z,81.50
2022-11-20T07:11:22.418Z,81.81
2022-11-20T07:14:24.056Z,81.73
2022-11-20T07:17:25.676Z,81.47
2022-11-20T07:20:27.694Z,81.70
2022-11-20T07:23:29.423Z,81.66
2022-11-20T07:26:31.101Z,81.58
2022-11-20T07:29:32.701Z,81.54
2022-11-20T07:32:34.321Z,81.31
2022-11-20T07:35:36.879Z,80.73
2022-11-20T07:38:39.261Z,80.63
2022-11-20T07:41:40.895Z,80.48
2022-11-20T07:44:42.619Z,80.27
2022-11-20T07:47:44.623Z,80.01
2022-11-20T07:50:46.668Z,79.55
2022-11-20T07:53:48.276Z,78.98
2022-11-20T07:56:50.343Z,79.83
2022-11-20T07:59:52.029Z,79.63
2022-11-20T08:02:53.702Z,79.00
2022-11-20T08:05:55.401Z,78.96
2022-11-20T08:08:57.290Z,77.59
2022-11-20T08:12:17.684Z,78.95
2022-11-20T08:15:19.356Z,78.24
2022-11-20T08:18:31.062Z,77.96
2022-11-20T08:21:38.219Z,78.38
2022-11-20T08:24:40.161Z,77.35
2022-11-20T08:27:41.792Z,77.08
2022-11-20T08:30:43.461Z,76.46
2022-11-20T08:33:45.114Z,77.76
2022-11-20T08:36:46.798Z,76.76
2022-11-20T08:39:48.434Z,76.10
2022-11-20T08:42:51.363Z,75.90
2022-11-20T08:45:52.964Z,76.43
2022-11-20T08:48:54.807Z,76.62
2022-11-20T08:51:56.412Z,75.42
2022-11-20T08:54:58.028Z,75.99
2022-11-20T08:58:03.772Z,75.34
2022-11-20T09:01:05.713Z,74.94
2022-11-20T09:04:08.489Z,75.90
2022-11-20T09:07:10.107Z,75.47
2022-11-20T09:10:27.085Z,75.25
2022-11-20T09:13:29.898Z,75.03
2022-11-20T09:16:31.538Z,75.96
2022-11-20T09:22:55.213Z,74.27
2022-11-20T09:26:00.540Z,74.06
2022-11-20T09:29:03.029Z,73.94
2022-11-20T09:32:05.069Z,74.44
2022-11-20T09:35:06.989Z,74.12
2022-11-20T09:38:09.067Z,74.54
2022-11-20T09:41:33.215Z,73.50
2022-11-20T09:44:44.941Z,73.66
2022-11-20T09:48:01.555Z,74.39
2022-11-20T09:51:23.217Z,74.62
2022-11-20T09:54:35.428Z,73.96
2022-11-20T09:57:40.186Z,74.37
2022-11-20T10:00:42.344Z,72.90
2022-11-20T10:04:11.398Z,73.39
2022-11-20T10:07:35.537Z,73.38
2022-11-20T10:10:46.498Z,72.59
2022-11-20T10:14:14.448Z,72.32
2022-11-20T10:17:27.843Z,71.25
2022-11-20T10:20:47.369Z,70.53
2022-11-20T10:24:12.742Z,70.88
2022-11-20T10:27:26.611Z,70.25
2022-11-20T10:30:28.648Z,71.13
2022-11-20T10:34:05.029Z,71.32
2022-11-20T10:37:14.706Z,70.86
2022-11-20T10:40:26.219Z,70.43
2022-11-20T10:43:37.192Z,70.21
2022-11-20T10:46:45.224Z,70.67
2022-11-20T10:49:56.389Z,70.51
2022-11-20T10:53:36.859Z,68.38
2022-11-20T10:56:50.293Z,69.02
2022-11-20T10:59:54.996Z,69.54
2022-11-20T11:03:03.139Z,68.27
2022-11-20T11:06:26.180Z,68.61
2022-11-20T11:09:36.720Z,70.08
2022-11-20T11:12:45.881Z,71.51
2022-11-20T11:15:47.553Z,70.66
2022-11-20T11:18:49.338Z,69.88
2022-11-20T11:21:55.821Z,70.56
2022-11-20T11:24:58.003Z,72.08
2022-11-20T11:28:03.876Z,72.40
2022-11-20T11:31:05.522Z,72.29
2022-11-20T11:34:08.701Z,72.43
2022-11-20T11:37:22.568Z,72.14
2022-11-20T11:40:28.019Z,72.15
2022-11-20T11:43:52.003Z,71.91
2022-11-20T11:46:57.621Z,71.53
2022-11-20T11:50:11.299Z,72.11
2022-11-20T11:53:18.739Z,70.18
2022-11-20T11:56:21.814Z,70.40
2022-11-20T11:59:32.962Z,70.21
2022-11-20T12:02:44.166Z,70.10
2022-11-20T12:05:52.410Z,69.63
2022-11-20T12:09:02.398Z,70.63
2022-11-20T12:12:11.419Z,70.04
2022-11-20T12:15:23.695Z,69.19
2022-11-20T12:18:25.602Z,67.58
2022-11-20T12:21:35.003Z,67.99
2022-11-20T12:24:36.621Z,69.56
2022-11-20T12:27:58.721Z,71.18
2022-11-20T12:31:28.813Z,71.37
2022-11-20T12:34:51.870Z,70.64
2022-11-20T12:38:24.363Z,70.27
2022-11-20T12:42:02.452Z,70.90
2022-11-20T12:45:25.904Z,70.40
2022-11-20T12:48:53.540Z,69.97
2022-11-20T12:51:58.488Z,69.43
2022-11-20T12:55:03.396Z,70.47
2022-11-20T12:58:26.564Z,70.49
2022-11-20T13:01:48.751Z,69.17
2022-11-20T13:05:20.749Z,70.33
2022-11-20T13:08:25.636Z,70.82
2022-11-20T13:11:48.555Z,69.73
2022-11-20T13:15:05.046Z,70.42
2022-11-20T13:18:11.027Z,70.36
2022-11-20T13:21:17.935Z,70.85
2022-11-20T13:24:19.828Z,70.14
2022-11-20T13:27:24.187Z,70.57
2022-11-20T13:30:27.742Z,70.10
2022-11-20T13:33:32.951Z,70.60
2022-11-20T13:36:36.032Z,70.73
2022-11-20T13:39:38.405Z,70.95
2022-11-20T13:42:46.071Z,71.48
2022-11-20T13:46:08.531Z,73.02
2022-11-20T13:49:18.561Z,71.64
2022-11-20T13:52:47.432Z,72.19
2022-11-20T13:55:59.978Z,72.40
2022-11-20T13:59:29.516Z,73.04
2022-11-20T14:02:31.626Z,73.90
2022-11-20T14:05:49.504Z,73.55
2022-11-20T14:08:52.669Z,72.41
2022-11-20T14:11:56.058Z,73.94
2022-11-20T14:14:58.417Z,74.97
2022-11-20T14:18:11.830Z,74.31
2022-11-20T14:21:26.106Z,74.96
2022-11-20T14:24:28.053Z,73.73
2022-11-20T14:27:30.609Z,74.77
2022-11-20T14:30:45.120Z,74.21
2022-11-20T14:33:47.904Z,74.42
2022-11-20T14:36:54.617Z,74.52
2022-11-20T14:39:59.757Z,74.87
2022-11-20T14:43:01.641Z,74.95
2022-11-20T14:46:09.276Z,75.16
2022-11-20T14:49:12.549Z,76.36
2022-11-20T14:52:17.830Z,76.08
2022-11-20T14:55:35.243Z,75.70
2022-11-20T14:58:37.140Z,75.80
2022-11-20T15:01:38.947Z,75.93
2022-11-20T15:04:57.638Z,76.39
2022-11-20T15:08:10.330Z,75.37
2022-11-20T15:11:20.726Z,75.62
2022-11-20T15:14:22.956Z,76.49
2022-11-20T15:17:25.153Z,75.94
2022-11-20T15:20:31.019Z,76.98
2022-11-20T15:23:32.915Z,77.53
2022-11-20T15:26:35.691Z,77.18
2022-11-20T15:29:37.747Z,77.97
2022-11-20T15:32:43.395Z,77.90
2022-11-20T15:35:45.533Z,77.92
2022-11-20T15:38:47.653Z,78.17
2022-11-20T15:41:49.436Z,79.05
2022-11-20T15:44:51.320Z,80.00
2022-11-20T15:47:52.936Z,79.41
2022-11-20T15:51:08.381Z,79.15
2022-11-20T15:54:12.673Z,79.41
2022-11-20T15:57:15.049Z,79.27
2022-11-20T16:00:23.231Z,78.92
2022-11-20T16:03:25.812Z,78.97
2022-11-20T16:06:27.796Z,79.18
2022-11-20T16:09:29.722Z,79.44
2022-11-20T16:12:50.147Z,78.51
2022-11-20T16:15:57.360Z,79.80
2022-11-20T16:18:59.610Z,79.75
2022-11-20T16:22:04.504Z,78.96
2022-11-20T16:25:06.579Z,79.27
2022-11-20T16:28:08.817Z,79.37
2022-11-20T16:31:17.829Z,79.84
2022-11-20T16:34:19.939Z,79.35
2022-11-20T16:37:21.760Z,80.56
2022-11-20T16:40:25.026Z,79.70
2022-11-20T16:43:26.899Z,79.99
2022-11-20T16:46:32.494Z,79.93
2022-11-20T16:49:34.358Z,79.89
2022-11-20T16:52:36.498Z,80.78
2022-11-20T16:55:38.338Z,80.96
2022-11-20T16:58:40.184Z,80.38
2022-11-20T17:01:43.896Z,79.87
2022-11-20T17:04:45.899Z,80.43
2022-11-20T17:07:47.538Z,80.46
2022-11-20T17:10:49.374Z,80.43
2022-11-20T17:13:51.240Z,80.73
2022-11-20T17:16:52.867Z,81.11
2022-11-20T17:19:54.823Z,80.90
2022-11-20T17:22:56.923Z,80.18
2022-11-20T17:26:08.104Z,80.93
2022-11-20T17:29:16.219Z,80.13
2022-11-20T17:32:19.034Z,79.81
2022-11-20T17:35:20.915Z,79.97
2022-11-20T17:38:24.116Z,79.89
2022-11-20T17:41:28.449Z,79.47
2022-11-20T17:44:30.330Z,79.06
2022-11-20T17:47:32.002Z,79.10
2022-11-20T17:50:33.901Z,79.46
2022-11-20T17:53:39.187Z,79.80
2022-11-20T17:56:59.696Z,79.54
2022-11-20T18:00:01.633Z,79.49
2022-11-20T18:03:04.981Z,80.24
2022-11-20T18:06:14.365Z,79.79
2022-11-20T18:09:16.562Z,79.38
2022-11-20T18:12:18.439Z,79.14
2022-11-20T18:15:20.459Z,79.35
2022-11-20T18:18:22.259Z,79.87
2022-11-20T18:21:26.556Z,79.78
2022-11-20T18:24:28.776Z,79.87
2022-11-20T18:27:30.828Z,80.21
2022-11-20T18:30:32.784Z,79.63
2022-11-20T18:33:35.516Z,80.00
2022-11-20T18:36:37.210Z,79.53
2022-11-20T18:39:39.620Z,79.80
2022-11-20T18:43:00.104Z,79.54
2022-11-20T18:46:03.842Z,79.39
2022-11-20T18:49:05.472Z,79.44
2022-11-20T18:52:08.121Z,80.06
2022-11-20T18:55:10.381Z,79.75
2022-11-20T18:58:12.275Z,79.21
2022-11-20T19:01:14.490Z,80.50
2022-11-20T19:04:17.985Z,80.91
2022-11-20T19:07:22.472Z,80.56
2022-11-20T19:10:26.869Z,80.70
2022-11-20T19:13:31.211Z,80.15
2022-11-20T19:16:33.079Z,80.27
2022-11-20T19:19:38.513Z,80.97
2022-11-20T19:22:40.397Z,80.13
2022-11-20T19:25:42.275Z,80.98
2022-11-20T19:28:44.724Z,81.20
2022-11-20T19:31:49.110Z,81.61
2022-11-20T19:34:50.975Z,80.68
2022-11-20T19:37:52.883Z,81.59
2022-11-20T19:40:55.254Z,81.33
2022-11-20T19:44:05.454Z,81.05
2022-11-20T19:47:12.999Z,81.12
2022-11-20T19:50:18.890Z,82.36
2022-11-20T19:53:21.860Z,81.46
2022-11-20T19:56:24.729Z,81.25
2022-11-20T19:59:26.987Z,81.47
2022-11-20T20:02:30.656Z,81.92
2022-11-20T20:05:34.157Z,81.87
2022-11-20T20:08:36.979Z,82.12
2022-11-20T20:11:39.867Z,82.60
2022-11-20T20:14:41.736Z,83.13
2022-11-20T20:17:43.600Z,83.37
2022-11-20T20:20:45.516Z,83.48
2022-11-20T20:23:53.513Z,82.88
2022-11-20T20:26:58.199Z,83.33
2022-11-20T20:30:00.433Z,82.79
2022-11-20T20:33:02.375Z,82.28
2022-11-20T20:36:05.235Z,82.17
2022-11-20T20:39:07.437Z,81.77
2022-11-20T20:42:09.064Z,82.27
2022-11-20T20:45:11.216Z,82.30
2022-11-20T20:48:13.737Z,82.14
2022-11-20T20:51:16.496Z,82.46
2022-11-20T20:54:18.292Z,82.38
2022-11-20T20:57:21.046Z,82.29
2022-11-20T21:00:23.333Z,82.38
2022-11-20T21:03:27.331Z,82.42
2022-11-20T21:06:32.466Z,83.31
2022-11-20T21:09:34.431Z,83.66
2022-11-20T21:12:36.107Z,83.33
2022-11-20T21:15:41.706Z,83.39
2022-11-20T21:18:43.380Z,83.17
2022-11-20T21:22:00.410Z,83.41
2022-11-20T21:25:02.020Z,83.00
2022-11-20T21:28:03.719Z,83.26
2022-11-20T21:31:10.909Z,83.03
2022-11-20T21:34:13.492Z,83.04
2022-11-20T21:37:15.267Z,83.36
2022-11-20T21:40:17.166Z,83.90
2022-11-20T21:43:18.771Z,84.07
2022-11-20T21:46:20.382Z,84.13
2022-11-20T21:49:22.466Z,84.40
2022-11-20T21:52:24.339Z,83.21
2022-11-20T21:55:25.990Z,84.20
2022-11-20T21:58:28.232Z,84.43
2022-11-20T22:01:30.958Z,83.40
2022-11-20T22:04:32.661Z,83.87
2022-11-20T22:07:34.272Z,83.85
2022-11-20T22:10:36.004Z,84.01
2022-11-20T22:13:56.258Z,83.77
2022-11-20T22:16:57.843Z,83.90
2022-11-20T22:19:59.446Z,83.74
2022-11-20T22:23:01.087Z,83.34
2022-11-20T22:26:05.519Z,83.88
2022-11-20T22:29:12.113Z,83.85
2022-11-20T22:32:13.734Z,83.55
2022-11-20T22:35:15.384Z,84.43
2022-11-20T22:38:17.065Z,84.06
2022-11-20T22:41:21.224Z,83.95
2022-11-20T22:44:23.148Z,83.16
2022-11-20T22:47:24.989Z,83.74
2022-11-20T22:50:26.824Z,83.63
2022-11-20T22:53:28.413Z,83.54
2022-11-20T22:56:32.237Z,84.33
2022-11-20T22:59:33.873Z,83.99
2022-11-20T23:02:35.487Z,83.38
2022-11-20T23:05:37.098Z,84.15
2022-11-20T23:08:40.535Z,84.24
2022-11-20T23:11:42.253Z,83.97
2022-11-20T23:14:43.890Z,82.81
2022-11-20T23:17:45.511Z,83.13
2022-11-20T23:20:47.113Z,84.21
2022-11-20T23:23:54.263Z,83.29
2022-11-20T23:26:55.880Z,83.40
2022-11-20T23:29:59.025Z,83.29
2022-11-20T23:33:00.656Z,83.98
2022-11-20T23:36:02.344Z,84.53
2022-11-20T23:39:04.140Z,83.20
2022-11-20T23:42:05.840Z,83.70
2022-11-20T23:45:08.014Z,83.68
2022-11-20T23:48:09.850Z,83.75
2022-11-20T23:51:11.605Z,83.91
2022-11-20T23:54:13.219Z,83.11
2022-11-20T23:57:14.852Z,83.57
